createdAt,value
2023-05-09T00:00:53.201Z,43.03
2023-05-09T00:03:21.041Z,40.77
2023-05-09T00:05:48.240Z,40.20
2023-05-09T00:08:15.524Z,39.97
2023-05-09T00:10:42.539Z,40.47
2023-05-09T00:13:09.562Z,38.60
2023-05-09T00:15:36.501Z,42.20
2023-05-09T00:18:03.539Z,39.50
2023-05-09T00:20:30.594Z,36.70
2023-05-09T00:22:57.568Z,37.93
2023-05-09T00:25:24.696Z,36.07
2023-05-09T00:27:51.640Z,35.87
2023-05-09T00:30:19.210Z,39.97
2023-05-09T00:32:46.262Z,37.20
2023-05-09T00:35:13.500Z,35.23
2023-05-09T00:37:40.745Z,36.97
2023-05-09T00:40:09.189Z,37.07
2023-05-09T00:42:37.818Z,33.70
2023-05-09T00:45:06.142Z,34.40
2023-05-09T00:47:34.972Z,37.17
2023-05-09T00:50:02.753Z,30.33
2023-05-09T00:52:32.669Z,33.77
2023-05-09T00:55:00.677Z,32.47
2023-05-09T00:57:27.705Z,32.70
2023-05-09T00:59:54.884Z,27.60
2023-05-09T01:02:22.195Z,29.57
2023-05-09T01:04:49.319Z,30.37
2023-05-09T01:07:45.996Z,31.63
2023-05-09T01:10:46.684Z,29.77
2023-05-09T01:13:31.959Z,29.23
2023-05-09T01:16:09.162Z,30.40
2023-05-09T01:19:40.914Z,29.27
2023-05-09T01:22:14.101Z,29.83
2023-05-09T01:25:31.811Z,33.07
2023-05-09T01:28:18.945Z,34.97
2023-05-09T01:30:51.708Z,28.63
2023-05-09T01:33:21.446Z,32.03
2023-05-09T01:35:59.650Z,31.87
2023-05-09T01:38:31.374Z,30.27
2023-05-09T01:41:00.445Z,31.30
2023-05-09T01:43:30.230Z,32.83
2023-05-09T01:45:59.444Z,29.80
2023-05-09T01:48:30.003Z,32.03
2023-05-09T01:50:59.278Z,27.83
2023-05-09T01:53:29.924Z,30.07
2023-05-09T01:56:00.045Z,30.80
2023-05-09T01:58:28.082Z,31.67
2023-05-09T02:00:55.766Z,31.00
2023-05-09T02:03:23.919Z,32.90
2023-05-09T02:05:52.096Z,34.13
2023-05-09T02:08:21.931Z,29.67
2023-05-09T02:10:53.009Z,31.13
2023-05-09T02:13:20.085Z,30.37
2023-05-09T02:15:47.872Z,32.57
2023-05-09T02:18:16.919Z,30.87
2023-05-09T02:20:44.032Z,33.03
2023-05-09T02:23:11.989Z,34.63
2023-05-09T02:25:41.259Z,32.60
2023-05-09T02:28:10.266Z,31.70
2023-05-09T02:30:44.124Z,28.80
2023-05-09T02:33:12.849Z,27.63
2023-05-09T02:35:46.250Z,31.40
2023-05-09T02:38:14.764Z,30.47
2023-05-09T02:40:46.682Z,28.57
2023-05-09T02:43:15.053Z,29.30
2023-05-09T02:45:42.285Z,29.93
2023-05-09T02:48:09.624Z,34.73
2023-05-09T02:50:38.329Z,31.67
2023-05-09T02:53:06.195Z,29.50
2023-05-09T02:55:33.289Z,31.30
2023-05-09T02:58:12.650Z,33.33
2023-05-09T03:00:42.786Z,30.70
2023-05-09T03:03:10.696Z,34.03
2023-05-09T03:05:37.923Z,31.83
2023-05-09T03:08:05.329Z,31.43
2023-05-09T03:10:34.228Z,30.13
2023-05-09T03:13:01.624Z,35.77
2023-05-09T03:15:28.638Z,35.10
2023-05-09T03:17:56.482Z,35.90
2023-05-09T03:20:23.623Z,35.87
2023-05-09T03:22:50.687Z,34.43
2023-05-09T03:25:17.768Z,34.40
2023-05-09T03:27:45.221Z,30.73
2023-05-09T03:30:15.507Z,32.97
2023-05-09T03:32:44.532Z,33.37
2023-05-09T03:35:11.590Z,31.47
2023-05-09T03:37:38.682Z,36.07
2023-05-09T03:40:08.836Z,37.33
2023-05-09T03:42:41.849Z,38.50
2023-05-09T03:45:09.689Z,35.30
2023-05-09T03:47:36.808Z,36.30
2023-05-09T03:50:04.235Z,36.40
2023-05-09T03:52:31.659Z,35.13
2023-05-09T03:54:59.152Z,35.07
2023-05-09T03:57:27.071Z,39.00
2023-05-09T03:59:56.656Z,37.80
2023-05-09T04:02:24.029Z,36.17
2023-05-09T04:04:52.645Z,36.20
2023-05-09T04:07:22.174Z,39.67
2023-05-09T04:09:50.181Z,38.97
2023-05-09T04:12:17.104Z,36.03
2023-05-09T04:14:46.736Z,40.57
2023-05-09T04:17:15.398Z,36.03
2023-05-09T04:19:42.330Z,42.37
2023-05-09T04:22:09.817Z,38.17
2023-05-09T04:24:36.946Z,39.10
2023-05-09T04:27:04.169Z,42.33
2023-05-09T04:29:31.454Z,36.87
2023-05-09T04:31:59.444Z,37.73
2023-05-09T04:34:27.781Z,36.73
2023-05-09T04:36:56.023Z,32.73
2023-05-09T04:39:23.660Z,35.70
2023-05-09T04:41:59.776Z,37.10
2023-05-09T04:44:26.801Z,36.30
2023-05-09T04:46:55.114Z,34.83
2023-05-09T04:49:22.080Z,32.50
2023-05-09T04:51:49.187Z,34.07
2023-05-09T04:54:16.175Z,34.70
2023-05-09T04:56:43.594Z,33.30
2023-05-09T04:59:10.710Z,31.50
2023-05-09T05:01:37.768Z,33.50
2023-05-09T05:04:05.071Z,33.93
2023-05-09T05:06:33.143Z,34.50
2023-05-09T05:09:00.629Z,32.47
2023-05-09T05:11:27.894Z,40.10
2023-05-09T05:13:55.217Z,32.23
2023-05-09T05:16:23.127Z,32.80
2023-05-09T05:18:50.228Z,32.90
2023-05-09T05:21:19.083Z,39.63
2023-05-09T05:23:46.200Z,33.43
2023-05-09T05:26:14.666Z,37.73
2023-05-09T05:28:41.800Z,38.17
2023-05-09T05:31:08.836Z,36.87
2023-05-09T05:33:35.785Z,38.13
2023-05-09T05:36:03.567Z,34.40
2023-05-09T05:38:30.651Z,36.43
2023-05-09T05:40:59.114Z,41.00
2023-05-09T05:43:27.970Z,34.43
2023-05-09T05:45:55.751Z,37.13
2023-05-09T05:48:23.932Z,32.47
2023-05-09T05:50:53.004Z,31.67
2023-05-09T05:53:23.928Z,32.00
2023-05-09T05:55:51.504Z,34.67
2023-05-09T05:58:18.653Z,30.43
2023-05-09T06:00:45.893Z,32.37
2023-05-09T06:03:14.562Z,28.13
2023-05-09T06:05:50.078Z,29.00
2023-05-09T06:08:17.447Z,27.97
2023-05-09T06:10:44.532Z,28.00
2023-05-09T06:13:11.626Z,28.67
2023-05-09T06:15:42.130Z,29.17
2023-05-09T06:18:09.318Z,28.63
2023-05-09T06:20:36.381Z,28.50
2023-05-09T06:23:03.390Z,28.33
2023-05-09T06:25:30.387Z,26.77
2023-05-09T06:27:57.352Z,25.73
2023-05-09T06:30:26.826Z,23.87
2023-05-09T06:32:55.454Z,21.50
2023-05-09T06:35:22.620Z,20.77
2023-05-09T06:37:50.223Z,18.55
2023-05-09T06:40:17.346Z,17.27
2023-05-09T06:42:45.034Z,16.40
2023-05-09T06:45:12.368Z,14.52
2023-05-09T06:47:39.639Z,12.88
2023-05-09T06:50:07.805Z,12.80
2023-05-09T06:52:34.794Z,11.75
2023-05-09T06:55:02.372Z,9.27
2023-05-09T06:57:29.453Z,8.85
2023-05-09T06:59:57.266Z,8.52
2023-05-09T07:02:24.265Z,7.65
2023-05-09T07:04:51.282Z,6.82
2023-05-09T07:07:18.346Z,6.20
2023-05-09T07:09:45.417Z,6.35
2023-05-09T07:12:12.465Z,5.95
2023-05-09T07:14:41.708Z,9.73
2023-05-09T07:17:21.933Z,6.13
2023-05-09T07:19:51.075Z,6.90
2023-05-09T07:22:18.123Z,5.90
2023-05-09T07:24:46.314Z,5.10
2023-05-09T07:27:13.634Z,7.15
2023-05-09T07:29:40.620Z,7.00
2023-05-09T07:32:08.083Z,7.55
2023-05-09T07:34:36.185Z,6.10
2023-05-09T07:37:03.318Z,6.45
2023-05-09T07:39:30.318Z,7.03
2023-05-09T07:41:57.249Z,7.93
2023-05-09T07:44:24.255Z,6.05
2023-05-09T07:46:51.436Z,6.55
2023-05-09T07:49:18.401Z,6.18
2023-05-09T07:51:45.359Z,7.22
2023-05-09T07:54:12.864Z,5.68
2023-05-09T07:56:39.821Z,6.05
2023-05-09T07:59:06.782Z,8.32
2023-05-09T08:01:33.864Z,6.20
2023-05-09T08:04:00.915Z,5.18
2023-05-09T08:06:28.021Z,5.80
2023-05-09T08:08:54.996Z,5.18
2023-05-09T08:11:21.964Z,6.05
2023-05-09T08:13:48.958Z,5.20
2023-05-09T08:16:17.363Z,6.00
2023-05-09T08:18:44.890Z,4.25
2023-05-09T08:21:12.267Z,5.60
2023-05-09T08:23:40.535Z,5.30
2023-05-09T08:26:07.572Z,5.63
2023-05-09T08:28:34.551Z,5.25
2023-05-09T08:31:01.499Z,4.90
2023-05-09T08:33:29.702Z,5.38
2023-05-09T08:35:56.741Z,8.70
2023-05-09T08:38:24.722Z,9.82
2023-05-09T08:40:51.922Z,5.70
2023-05-09T08:43:23.641Z,5.60
2023-05-09T08:45:58.672Z,4.70
2023-05-09T08:48:27.906Z,5.38
2023-05-09T08:50:56.141Z,5.72
2023-05-09T08:53:23.557Z,5.82
2023-05-09T08:55:51.091Z,4.97
2023-05-09T08:58:22.386Z,7.07
2023-05-09T09:00:50.664Z,4.53
2023-05-09T09:03:18.476Z,4.65
2023-05-09T09:05:48.591Z,5.03
2023-05-09T09:08:16.800Z,7.40
2023-05-09T09:10:48.205Z,5.32
2023-05-09T09:13:18.111Z,4.40
2023-05-09T09:15:48.100Z,6.82
2023-05-09T09:18:28.053Z,6.18
2023-05-09T09:21:06.191Z,4.85
2023-05-09T09:23:34.035Z,4.72
2023-05-09T09:26:04.917Z,4.97
2023-05-09T09:28:32.787Z,4.07
2023-05-09T09:30:59.772Z,3.85
2023-05-09T09:33:29.109Z,3.95
2023-05-09T09:35:57.052Z,3.80
2023-05-09T09:38:25.205Z,4.30
2023-05-09T09:40:52.090Z,5.20
2023-05-09T09:43:19.324Z,11.52
2023-05-09T09:45:53.114Z,4.20
2023-05-09T09:48:25.877Z,3.92
2023-05-09T09:50:56.775Z,3.17
2023-05-09T09:53:30.133Z,4.57
2023-05-09T09:55:57.368Z,3.92
2023-05-09T09:58:26.942Z,3.20
2023-05-09T10:01:07.052Z,3.00
2023-05-09T10:03:47.962Z,4.97
2023-05-09T10:06:16.679Z,2.90
2023-05-09T10:08:49.102Z,5.75
2023-05-09T10:11:16.503Z,2.83
2023-05-09T10:13:44.695Z,2.97
2023-05-09T10:16:13.716Z,3.75
2023-05-09T10:18:42.613Z,2.80
2023-05-09T10:21:15.355Z,3.33
2023-05-09T10:23:49.487Z,3.08
2023-05-09T10:26:28.585Z,2.75
2023-05-09T10:28:57.885Z,3.10
2023-05-09T10:31:32.492Z,2.90
2023-05-09T10:34:08.380Z,2.92
2023-05-09T10:36:36.412Z,3.50
2023-05-09T10:39:03.585Z,3.50
2023-05-09T10:41:31.367Z,3.15
2023-05-09T10:43:59.582Z,3.03
2023-05-09T10:46:27.966Z,3.03
2023-05-09T10:48:55.750Z,3.78
2023-05-09T10:51:25.037Z,2.47
2023-05-09T10:53:52.082Z,3.22
2023-05-09T10:56:31.737Z,2.60
2023-05-09T10:59:00.301Z,2.65
2023-05-09T11:01:38.526Z,3.63
2023-05-09T11:04:14.918Z,2.90
2023-05-09T11:06:42.102Z,2.80
2023-05-09T11:09:35.739Z,3.92
2023-05-09T11:12:05.722Z,2.88
2023-05-09T11:14:46.965Z,3.17
2023-05-09T11:17:31.666Z,4.25
2023-05-09T11:20:03.318Z,4.57
2023-05-09T11:22:41.929Z,3.47
2023-05-09T11:25:15.053Z,3.35
2023-05-09T11:27:48.537Z,3.47
2023-05-09T11:30:20.596Z,3.50
2023-05-09T11:32:55.735Z,4.22
2023-05-09T11:35:24.138Z,3.38
2023-05-09T11:38:07.069Z,3.40
2023-05-09T11:40:35.357Z,3.45
2023-05-09T11:43:02.424Z,3.08
2023-05-09T11:45:32.375Z,4.10
2023-05-09T11:48:01.086Z,3.47
2023-05-09T11:50:28.766Z,4.85
2023-05-09T11:52:55.891Z,3.67
2023-05-09T11:55:23.289Z,5.10
2023-05-09T11:57:53.293Z,4.60
2023-05-09T12:00:25.600Z,4.00
2023-05-09T12:02:53.720Z,4.13
2023-05-09T12:05:23.229Z,4.68
2023-05-09T12:07:51.072Z,4.60
2023-05-09T12:10:23.123Z,5.28
2023-05-09T12:12:52.897Z,4.63
2023-05-09T12:15:21.821Z,4.70
2023-05-09T12:18:05.150Z,4.47
2023-05-09T12:20:45.960Z,4.90
2023-05-09T12:23:14.758Z,5.20
2023-05-09T12:25:57.534Z,5.10
2023-05-09T12:28:26.343Z,5.05
2023-05-09T12:30:54.624Z,6.30
2023-05-09T12:33:22.461Z,5.57
2023-05-09T12:36:12.113Z,5.38
2023-05-09T12:38:39.905Z,5.68
2023-05-09T12:41:22.461Z,9.30
2023-05-09T12:43:58.360Z,5.30
2023-05-09T12:46:25.539Z,4.80
2023-05-09T12:48:52.664Z,5.22
2023-05-09T12:51:21.573Z,5.50
2023-05-09T12:53:49.665Z,5.38
2023-05-09T12:56:23.572Z,5.95
2023-05-09T12:58:53.324Z,5.97
2023-05-09T13:01:28.986Z,6.65
2023-05-09T13:04:04.668Z,6.13
2023-05-09T13:06:31.755Z,6.30
2023-05-09T13:09:02.254Z,7.15
2023-05-09T13:11:29.759Z,6.07
2023-05-09T13:13:57.116Z,5.88
2023-05-09T13:16:24.469Z,9.57
2023-05-09T13:18:51.433Z,6.05
2023-05-09T13:21:18.415Z,5.68
2023-05-09T13:23:45.742Z,7.15
2023-05-09T13:26:12.919Z,6.70
2023-05-09T13:28:39.917Z,6.43
2023-05-09T13:31:07.995Z,7.07
2023-05-09T13:33:35.164Z,6.93
2023-05-09T13:36:02.218Z,6.63
2023-05-09T13:38:31.062Z,7.50
2023-05-09T13:40:58.377Z,7.00
2023-05-09T13:43:25.378Z,6.82
2023-05-09T13:45:52.377Z,9.70
2023-05-09T13:48:19.333Z,7.88
2023-05-09T13:50:46.885Z,6.55
2023-05-09T13:53:13.824Z,6.55
2023-05-09T13:55:40.798Z,8.15
2023-05-09T13:58:07.780Z,7.38
2023-05-09T14:00:35.004Z,6.90
2023-05-09T14:03:03.165Z,10.63
2023-05-09T14:05:33.446Z,7.70
2023-05-09T14:08:01.529Z,6.43
2023-05-09T14:10:28.969Z,6.35
2023-05-09T14:12:56.893Z,5.85
2023-05-09T14:15:23.867Z,5.95
2023-05-09T14:17:50.898Z,6.97
2023-05-09T14:20:18.236Z,4.45
2023-05-09T14:22:45.362Z,6.53
2023-05-09T14:25:12.481Z,5.50
2023-05-09T14:27:39.559Z,4.93
2023-05-09T14:30:07.517Z,4.18
2023-05-09T14:32:34.428Z,4.00
2023-05-09T14:35:01.434Z,8.65
2023-05-09T14:37:29.271Z,4.28
2023-05-09T14:39:56.287Z,4.25
2023-05-09T14:42:23.373Z,4.20
2023-05-09T14:44:50.323Z,4.55
2023-05-09T14:47:17.588Z,3.23
2023-05-09T14:49:44.763Z,6.17
2023-05-09T14:52:12.039Z,3.43
2023-05-09T14:54:39.089Z,5.30
2023-05-09T14:57:07.371Z,3.73
2023-05-09T14:59:36.833Z,3.80
2023-05-09T15:02:04.263Z,2.93
2023-05-09T15:04:31.732Z,2.50
2023-05-09T15:06:58.953Z,3.27
2023-05-09T15:09:26.488Z,2.37
2023-05-09T15:11:54.726Z,3.17
2023-05-09T15:14:21.944Z,3.17
2023-05-09T15:16:51.445Z,4.90
2023-05-09T15:19:18.920Z,5.87
2023-05-09T15:21:45.912Z,2.87
2023-05-09T15:24:12.986Z,2.70
2023-05-09T15:26:39.940Z,5.97
2023-05-09T15:29:07.227Z,2.60
2023-05-09T15:31:36.812Z,3.37
2023-05-09T15:34:04.570Z,2.30
2023-05-09T15:36:33.706Z,2.40
2023-05-09T15:39:01.052Z,5.50
2023-05-09T15:41:28.616Z,2.20
2023-05-09T15:43:55.593Z,2.70
2023-05-09T15:46:22.787Z,2.53
2023-05-09T15:48:50.553Z,3.10
2023-05-09T15:51:17.501Z,2.63
2023-05-09T15:53:44.535Z,1.43
2023-05-09T15:56:11.796Z,1.43
2023-05-09T15:58:40.287Z,2.63
2023-05-09T16:01:08.174Z,2.30
2023-05-09T16:03:35.560Z,3.03
2023-05-09T16:06:03.244Z,1.77
2023-05-09T16:08:30.168Z,3.73
2023-05-09T16:11:00.657Z,4.20
2023-05-09T16:13:27.775Z,2.97
2023-05-09T16:15:54.855Z,1.30
2023-05-09T16:18:21.832Z,1.30
2023-05-09T16:20:48.805Z,2.10
2023-05-09T16:23:15.750Z,1.80
2023-05-09T16:25:42.744Z,2.90
2023-05-09T16:28:09.704Z,2.17
2023-05-09T16:30:36.937Z,1.37
2023-05-09T16:33:03.986Z,2.20
2023-05-09T16:35:30.979Z,6.30
2023-05-09T16:37:58.052Z,2.27
2023-05-09T16:40:24.994Z,2.13
2023-05-09T16:42:53.002Z,1.73
2023-05-09T16:45:19.920Z,1.77
2023-05-09T16:47:46.894Z,1.90
2023-05-09T16:50:14.055Z,2.63
2023-05-09T16:52:41.227Z,1.60
2023-05-09T16:55:08.673Z,4.80
2023-05-09T16:57:35.908Z,4.73
2023-05-09T17:00:03.103Z,1.57
2023-05-09T17:02:30.149Z,3.17
2023-05-09T17:04:57.528Z,2.67
2023-05-09T17:07:24.771Z,3.63
2023-05-09T17:09:51.746Z,4.20
2023-05-09T17:12:18.740Z,4.67
2023-05-09T17:14:47.527Z,2.90
2023-05-09T17:17:15.395Z,3.37
2023-05-09T17:19:42.629Z,2.30
2023-05-09T17:22:09.832Z,4.93
2023-05-09T17:24:37.274Z,1.23
2023-05-09T17:27:05.135Z,2.33
2023-05-09T17:29:32.215Z,4.10
2023-05-09T17:32:02.296Z,6.43
2023-05-09T17:34:29.642Z,2.20
2023-05-09T17:36:58.355Z,1.70
2023-05-09T17:39:25.389Z,1.33
2023-05-09T17:41:52.357Z,1.07
2023-05-09T17:44:19.378Z,1.97
2023-05-09T17:46:48.029Z,4.53
2023-05-09T17:49:16.037Z,3.07
2023-05-09T17:51:43.351Z,1.37
2023-05-09T17:54:11.026Z,1.80
2023-05-09T17:56:38.520Z,1.13
2023-05-09T17:59:06.470Z,0.90
2023-05-09T18:01:33.468Z,0.73
2023-05-09T18:04:00.772Z,1.20
2023-05-09T18:06:28.893Z,0.97
2023-05-09T18:08:55.894Z,1.10
2023-05-09T18:11:23.043Z,1.40
2023-05-09T18:13:50.751Z,2.53
2023-05-09T18:16:17.762Z,1.53
2023-05-09T18:18:44.913Z,0.90
2023-05-09T18:21:12.010Z,5.03
2023-05-09T18:23:38.987Z,1.10
2023-05-09T18:26:05.984Z,1.53
2023-05-09T18:28:39.060Z,1.10
2023-05-09T18:31:09.473Z,3.03
2023-05-09T18:33:36.743Z,1.40
2023-05-09T18:36:04.061Z,1.13
2023-05-09T18:38:34.675Z,1.80
2023-05-09T18:41:02.025Z,2.33
2023-05-09T18:43:30.616Z,3.20
2023-05-09T18:45:57.545Z,2.20
2023-05-09T18:48:25.559Z,3.87
2023-05-09T18:50:52.579Z,1.20
2023-05-09T18:53:20.261Z,1.13
2023-05-09T18:55:48.107Z,1.57
2023-05-09T18:58:15.344Z,1.70
2023-05-09T19:00:42.793Z,1.27
2023-05-09T19:03:10.229Z,1.40
2023-05-09T19:05:37.224Z,1.43
2023-05-09T19:08:04.780Z,2.70
2023-05-09T19:10:31.888Z,1.50
2023-05-09T19:12:58.937Z,1.63
2023-05-09T19:15:26.013Z,1.93
2023-05-09T19:17:53.123Z,2.97
2023-05-09T19:20:20.293Z,1.70
2023-05-09T19:22:51.216Z,3.43
2023-05-09T19:25:18.857Z,1.87
2023-05-09T19:27:46.746Z,1.97
2023-05-09T19:30:15.396Z,2.80
2023-05-09T19:32:42.861Z,2.10
2023-05-09T19:35:10.334Z,3.17
2023-05-09T19:37:37.529Z,1.93
2023-05-09T19:40:06.271Z,2.33
2023-05-09T19:42:34.538Z,3.37
2023-05-09T19:45:01.593Z,2.57
2023-05-09T19:47:28.864Z,2.70
2023-05-09T19:49:55.979Z,2.80
2023-05-09T19:52:23.350Z,3.90
2023-05-09T19:54:50.697Z,4.30
2023-05-09T19:57:17.678Z,4.80
2023-05-09T19:59:44.799Z,4.53
2023-05-09T20:02:11.724Z,4.40
2023-05-09T20:04:38.890Z,4.30
2023-05-09T20:07:06.024Z,2.87
2023-05-09T20:09:33.074Z,3.00
2023-05-09T20:12:03.439Z,2.77
2023-05-09T20:14:31.733Z,3.73
2023-05-09T20:16:58.725Z,2.57
2023-05-09T20:19:25.705Z,3.03
2023-05-09T20:21:52.648Z,2.73
2023-05-09T20:24:20.231Z,3.03
2023-05-09T20:26:47.151Z,3.33
2023-05-09T20:29:14.226Z,2.70
2023-05-09T20:31:41.599Z,5.00
2023-05-09T20:34:10.807Z,2.73
2023-05-09T20:36:38.186Z,2.97
2023-05-09T20:39:05.194Z,4.43
2023-05-09T20:41:32.551Z,5.03
2023-05-09T20:44:03.883Z,3.97
2023-05-09T20:46:31.256Z,3.57
2023-05-09T20:48:58.177Z,3.20
2023-05-09T20:51:25.221Z,3.03
2023-05-09T20:53:52.131Z,3.10
2023-05-09T20:56:19.505Z,5.13
2023-05-09T20:58:46.428Z,3.70
2023-05-09T21:01:13.378Z,3.30
2023-05-09T21:03:40.463Z,3.50
2023-05-09T21:06:07.891Z,3.83
2023-05-09T21:08:34.945Z,3.80
2023-05-09T21:11:01.903Z,4.07
2023-05-09T21:13:29.084Z,3.43
2023-05-09T21:15:56.086Z,4.83
2023-05-09T21:18:23.325Z,4.37
2023-05-09T21:20:50.685Z,4.73
2023-05-09T21:23:18.634Z,5.00
2023-05-09T21:25:45.614Z,4.97
2023-05-09T21:28:14.715Z,5.33
2023-05-09T21:30:41.755Z,5.60
2023-05-09T21:33:09.076Z,6.27
2023-05-09T21:35:36.068Z,6.83
2023-05-09T21:38:03.531Z,8.43
2023-05-09T21:40:30.496Z,6.30
2023-05-09T21:42:57.456Z,6.93
2023-05-09T21:45:24.348Z,7.37
2023-05-09T21:47:51.384Z,6.97
2023-05-09T21:50:18.964Z,8.17
2023-05-09T21:52:46.084Z,10.80
2023-05-09T21:55:13.284Z,8.80
2023-05-09T21:57:40.267Z,8.07
2023-05-09T22:00:13.714Z,8.43
2023-05-09T22:02:44.060Z,8.00
2023-05-09T22:05:12.099Z,10.87
2023-05-09T22:07:39.394Z,9.30
2023-05-09T22:10:07.186Z,10.03
2023-05-09T22:12:34.269Z,9.43
2023-05-09T22:15:01.252Z,10.63
2023-05-09T22:17:28.224Z,10.87
2023-05-09T22:19:55.236Z,9.83
2023-05-09T22:22:22.471Z,9.80
2023-05-09T22:24:49.752Z,10.33
2023-05-09T22:27:16.850Z,10.10
2023-05-09T22:29:43.842Z,10.37
2023-05-09T22:32:11.480Z,10.63
2023-05-09T22:34:38.481Z,10.83
2023-05-09T22:37:05.463Z,10.67
2023-05-09T22:39:32.507Z,10.67
2023-05-09T22:41:59.467Z,11.23
2023-05-09T22:44:26.898Z,11.57
2023-05-09T22:46:53.822Z,11.07
2023-05-09T22:49:20.903Z,12.27
2023-05-09T22:51:47.816Z,12.63
2023-05-09T22:54:14.791Z,13.43
2023-05-09T22:56:43.089Z,11.90
2023-05-09T22:59:10.073Z,12.60
2023-05-09T23:01:37.019Z,13.10
2023-05-09T23:04:03.986Z,12.90
2023-05-09T23:06:31.326Z,14.07
2023-05-09T23:08:58.259Z,13.90
2023-05-09T23:11:25.793Z,14.50
2023-05-09T23:13:52.734Z,15.37
2023-05-09T23:16:19.681Z,13.93
2023-05-09T23:18:46.666Z,14.17
2023-05-09T23:21:13.628Z,14.67
2023-05-09T23:23:40.689Z,16.63
2023-05-09T23:26:07.678Z,15.00
2023-05-09T23:28:34.655Z,15.43
2023-05-09T23:31:01.619Z,15.80
2023-05-09T23:33:28.573Z,14.70
2023-05-09T23:35:55.806Z,15.97
2023-05-09T23:38:22.797Z,16.07
2023-05-09T23:40:49.751Z,14.37
2023-05-09T23:43:17.954Z,17.10
2023-05-09T23:45:44.880Z,16.23
2023-05-09T23:48:11.803Z,15.20
2023-05-09T23:50:38.734Z,14.57
2023-05-09T23:53:06.474Z,13.63
2023-05-09T23:55:33.497Z,13.13
2023-05-09T23:58:02.374Z,12.20
